Airfield :
LOGIN :

Register | Disclaimer

   EN    FR    IT 

 










Legend :    VFR   Marginal VFR   IFR   Intensive IFR   Very Intensive IFR
Visi :
Ceiling :
>= 8 km
>= 3000ft
5 to 8 km
1000 to 3000 ft
1500m to 5 km
500 to 1000 ft
800 to 1500m
200 to 500 ft
< 800m
< 200 ft
Symbols :   Thunderstorms  Fog  Heavy snow  Heavy precipitations  Wind > 20 kt
SIGMETs :     Misc.  Thunderstorms  Icing  Turbulence  Mountain Waves  Volcanic Ashes







- Airport Elevation : 1276 ft
- IATA code : STR


EDDS - Stuttgart

CURRENT METAR :
  • 171420Z 06013KT 9999 FEW028 BKN035 M03/M08 Q1030 NOSIG

EXPIRED METARs :
  • 171350Z 05013KT 9999 FEW028 SCT043 M03/M08 Q1030 NOSIG
  • 171320Z 06011KT 9999 FEW027 SCT041 M03/M08 Q1030 NOSIG
  • 171250Z 06010KT 9999 FEW027 BKN041 M03/M08 Q1030 NOSIG
  • 171220Z 07012KT 040V100 9999 FEW027 M02/M08 Q1030 NOSIG
  • 171150Z 07012KT 9999 FEW026 M02/M08 Q1030 NOSIG

TAF TAF EDDS
Valid from the 17 at 12:00 until the 18 at 12:00 UTC


171100Z 1712/1812 05008KT 9999 BKN020
No reported NOTAMs for that airfield.
1 SIGMET reported for the Langen FIR (EDGG) :
 
Severe turbulence
EDGG SIGMET 2 VALID 171300/171700 EDZF
EDGG LANGEN FIR SEV TURB FCST WI N5016 E01133 - N4826 E01028 - N4725 E00719 - N4841 E00742 - N5016 E01133 FL180/245 MOV SE NC=



MET'MAP, your aeronautical weather chart ! - Copyright ORBIFLY December 2007 - Disclaimer

ORBIFLY MET'MAP TEAM :

Programming & Development : Alexandra Zaïnal
Concept & Development : Baudouin d'Aumeries
Co-Development & Prog : Marc-Olivier Méhu
Technical & hardware support : Manuel Goepfert

Contact : metmap@orbifly.com




SOURCES & CREDITS :

   NOAA